createdAt,value
2024-03-14T00:01:09.941Z,4.57
2024-03-14T00:03:38.710Z,3.37
2024-03-14T00:06:08.074Z,3.07
2024-03-14T00:08:37.817Z,2.70
2024-03-14T00:11:07.222Z,2.80
2024-03-14T00:13:35.881Z,2.70
2024-03-14T00:16:04.858Z,2.80
2024-03-14T00:18:34.370Z,3.07
2024-03-14T00:21:11.196Z,2.83
2024-03-14T00:23:39.697Z,2.90
2024-03-14T00:26:10.032Z,2.87
2024-03-14T00:28:40.462Z,2.77
2024-03-14T00:31:08.837Z,3.10
2024-03-14T00:33:37.255Z,3.00
2024-03-14T00:36:06.078Z,2.60
2024-03-14T00:38:34.671Z,2.60
2024-03-14T00:41:04.898Z,2.40
2024-03-14T00:43:34.243Z,3.07
2024-03-14T00:46:02.567Z,2.73
2024-03-14T00:48:30.983Z,3.30
2024-03-14T00:50:59.966Z,2.30
2024-03-14T00:53:29.511Z,2.50
2024-03-14T00:55:59.536Z,2.57
2024-03-14T00:58:29.183Z,2.50
2024-03-14T01:00:57.767Z,2.40
2024-03-14T01:03:26.159Z,2.57
2024-03-14T01:05:54.730Z,2.80
2024-03-14T01:08:23.064Z,2.87
2024-03-14T01:10:51.357Z,2.37
2024-03-14T01:13:20.350Z,2.17
2024-03-14T01:15:49.381Z,2.87
2024-03-14T01:18:17.721Z,2.53
2024-03-14T01:20:46.703Z,2.40
2024-03-14T01:23:15.064Z,2.40
2024-03-14T01:25:43.321Z,2.67
2024-03-14T01:28:12.804Z,2.10
2024-03-14T01:30:43.573Z,2.10
2024-03-14T01:33:11.982Z,2.57
2024-03-14T01:35:40.338Z,2.43
2024-03-14T01:38:09.137Z,2.10
2024-03-14T01:40:37.541Z,2.33
2024-03-14T01:43:05.892Z,2.20
2024-03-14T01:45:34.281Z,2.33
2024-03-14T01:48:03.171Z,2.47
2024-03-14T01:50:32.802Z,2.30
2024-03-14T01:53:01.063Z,2.60
2024-03-14T01:55:29.773Z,2.53
2024-03-14T01:57:59.078Z,2.10
2024-03-14T02:00:30.608Z,2.47
2024-03-14T02:02:59.181Z,1.90
2024-03-14T02:05:27.606Z,2.17
2024-03-14T02:07:56.026Z,2.27
2024-03-14T02:10:26.806Z,2.37
2024-03-14T02:12:55.348Z,1.93
2024-03-14T02:15:25.052Z,2.23
2024-03-14T02:17:53.788Z,1.73
2024-03-14T02:20:22.598Z,1.87
2024-03-14T02:22:51.037Z,2.67
2024-03-14T02:25:19.883Z,2.10
2024-03-14T02:27:49.691Z,2.13
2024-03-14T02:30:18.393Z,1.90
2024-03-14T02:32:46.837Z,2.30
2024-03-14T02:35:15.298Z,1.53
2024-03-14T02:37:45.324Z,1.53
2024-03-14T02:40:13.738Z,2.03
2024-03-14T02:42:42.020Z,1.90
2024-03-14T02:45:10.606Z,1.97
2024-03-14T02:47:39.141Z,2.47
2024-03-14T02:50:09.473Z,2.00
2024-03-14T02:52:39.273Z,2.67
2024-03-14T02:55:08.792Z,2.17
2024-03-14T02:57:37.785Z,2.17
2024-03-14T03:00:12.248Z,1.80
2024-03-14T03:02:42.626Z,2.00
2024-03-14T03:05:11.536Z,1.97
2024-03-14T03:07:39.824Z,1.63
2024-03-14T03:10:08.764Z,2.00
2024-03-14T03:12:40.958Z,1.97
2024-03-14T03:15:10.760Z,1.83
2024-03-14T03:17:40.800Z,1.80
2024-03-14T03:20:12.852Z,2.00
2024-03-14T03:22:59.051Z,1.90
2024-03-14T03:25:27.353Z,1.80
2024-03-14T03:27:54.655Z,1.87
2024-03-14T03:30:23.316Z,2.10
2024-03-14T03:32:51.688Z,1.90
2024-03-14T03:35:24.216Z,2.30
2024-03-14T03:37:53.610Z,2.13
2024-03-14T03:40:24.287Z,2.20
2024-03-14T03:42:54.292Z,1.90
2024-03-14T03:45:22.189Z,2.47
2024-03-14T03:47:50.937Z,1.87
2024-03-14T03:50:19.103Z,1.90
2024-03-14T03:52:47.856Z,2.07
2024-03-14T03:55:18.251Z,1.77
2024-03-14T03:57:47.451Z,2.03
2024-03-14T04:00:45.196Z,1.87
2024-03-14T04:03:13.940Z,2.27
2024-03-14T04:05:41.286Z,1.70
2024-03-14T04:08:09.620Z,1.67
2024-03-14T04:10:36.939Z,1.97
2024-03-14T04:13:06.443Z,2.23
2024-03-14T04:15:35.789Z,1.77
2024-03-14T04:18:07.098Z,1.87
2024-03-14T04:20:39.176Z,2.30
2024-03-14T04:23:08.216Z,2.10
2024-03-14T04:25:37.701Z,1.80
2024-03-14T04:28:08.664Z,1.70
2024-03-14T04:30:38.292Z,1.93
2024-03-14T04:33:07.124Z,1.80
2024-03-14T04:35:36.692Z,2.07
2024-03-14T04:38:05.497Z,2.23
2024-03-14T04:40:34.102Z,1.90
2024-03-14T04:43:05.387Z,1.80
2024-03-14T04:45:33.817Z,2.17
2024-03-14T04:48:06.459Z,1.83
2024-03-14T04:50:35.920Z,2.10
2024-03-14T04:53:05.819Z,2.10
2024-03-14T04:55:34.901Z,1.53
2024-03-14T04:58:03.217Z,1.73
2024-03-14T05:00:32.733Z,1.77
2024-03-14T05:03:01.321Z,2.20
2024-03-14T05:05:30.728Z,1.97
2024-03-14T05:07:59.397Z,1.77
2024-03-14T05:10:27.731Z,1.40
2024-03-14T05:12:56.115Z,1.37
2024-03-14T05:15:24.541Z,1.90
2024-03-14T05:17:54.743Z,1.73
2024-03-14T05:20:24.889Z,1.70
2024-03-14T05:22:53.384Z,1.80
2024-03-14T05:25:22.783Z,1.70
2024-03-14T05:27:52.219Z,2.00
2024-03-14T05:30:21.101Z,2.10
2024-03-14T05:32:50.086Z,1.90
2024-03-14T05:35:19.347Z,1.67
2024-03-14T05:37:47.953Z,1.97
2024-03-14T05:40:16.308Z,1.90
2024-03-14T05:42:44.775Z,1.97
2024-03-14T05:45:13.295Z,2.13
2024-03-14T05:47:41.749Z,2.10
2024-03-14T05:50:11.699Z,1.73
2024-03-14T05:52:41.609Z,2.23
2024-03-14T05:55:11.330Z,2.07
2024-03-14T05:57:41.032Z,1.80
2024-03-14T06:00:13.167Z,2.03
2024-03-14T06:02:42.276Z,2.10
2024-03-14T06:05:11.081Z,2.17
2024-03-14T06:07:39.657Z,2.20
2024-03-14T06:10:08.596Z,2.80
2024-03-14T06:12:38.260Z,2.50
2024-03-14T06:15:09.083Z,3.20
2024-03-14T06:17:37.752Z,2.00
2024-03-14T06:20:08.791Z,2.27
2024-03-14T06:22:40.421Z,2.40
2024-03-14T06:25:12.066Z,2.33
2024-03-14T06:27:43.084Z,2.50
2024-03-14T06:30:15.687Z,2.40
2024-03-14T06:32:47.447Z,2.80
2024-03-14T06:35:17.202Z,2.60
2024-03-14T06:37:45.636Z,2.30
2024-03-14T06:40:15.880Z,2.10
2024-03-14T06:42:46.673Z,2.53
2024-03-14T06:45:15.686Z,2.23
2024-03-14T06:47:46.976Z,2.50
2024-03-14T06:50:16.186Z,3.37
2024-03-14T06:52:44.713Z,1.73
2024-03-14T06:55:14.897Z,2.40
2024-03-14T06:57:46.306Z,2.47
2024-03-14T07:00:15.418Z,2.70
2024-03-14T07:02:45.444Z,2.63
2024-03-14T07:05:16.616Z,2.70
2024-03-14T07:07:46.725Z,2.40
2024-03-14T07:10:16.147Z,2.47
2024-03-14T07:12:47.448Z,2.67
2024-03-14T07:15:16.356Z,2.70
2024-03-14T07:17:44.979Z,2.60
2024-03-14T07:20:19.247Z,3.37
2024-03-14T07:22:48.084Z,3.80
2024-03-14T07:25:19.162Z,3.50
2024-03-14T07:27:48.068Z,3.90
2024-03-14T07:30:17.283Z,4.23
2024-03-14T07:32:46.464Z,3.93
2024-03-14T07:35:16.456Z,3.33
2024-03-14T07:37:47.126Z,3.67
2024-03-14T07:40:18.820Z,3.73
2024-03-14T07:42:49.948Z,3.73
2024-03-14T07:45:20.080Z,3.80
2024-03-14T07:47:54.074Z,4.37
2024-03-14T07:50:24.118Z,4.70
2024-03-14T07:52:55.215Z,4.50
2024-03-14T07:55:23.626Z,4.10
2024-03-14T07:57:52.353Z,3.90
2024-03-14T08:00:22.896Z,3.23
2024-03-14T08:02:57.598Z,3.73
2024-03-14T08:05:32.827Z,4.27
2024-03-14T08:08:13.716Z,3.73
2024-03-14T08:10:50.126Z,4.40
2024-03-14T08:13:23.192Z,3.10
2024-03-14T08:15:56.087Z,3.97
2024-03-14T08:18:26.129Z,3.10
2024-03-14T08:20:57.842Z,3.97
2024-03-14T08:23:28.721Z,3.60
2024-03-14T08:25:57.549Z,3.97
2024-03-14T08:28:25.806Z,3.80
2024-03-14T08:30:54.466Z,3.97
2024-03-14T08:33:25.501Z,4.00
2024-03-14T08:35:54.452Z,3.23
2024-03-14T08:38:23.379Z,4.40
2024-03-14T08:40:51.702Z,3.70
2024-03-14T08:43:20.922Z,3.73
2024-03-14T08:45:52.353Z,3.93
2024-03-14T08:48:22.525Z,5.43
2024-03-14T08:50:51.386Z,3.60
2024-03-14T08:53:19.738Z,4.20
2024-03-14T08:55:55.358Z,3.30
2024-03-14T08:58:26.850Z,3.87
2024-03-14T09:00:55.757Z,3.63
2024-03-14T09:03:24.173Z,4.40
2024-03-14T09:05:52.556Z,3.77
2024-03-14T09:08:25.519Z,3.83
2024-03-14T09:10:54.954Z,3.70
2024-03-14T09:13:24.983Z,3.63
2024-03-14T09:15:53.579Z,3.90
2024-03-14T09:18:27.364Z,3.77
2024-03-14T09:20:58.277Z,3.83
2024-03-14T09:23:28.334Z,3.70
2024-03-14T09:25:59.083Z,3.33
2024-03-14T09:28:28.603Z,3.83
2024-03-14T09:31:00.599Z,4.20
2024-03-14T09:33:29.391Z,3.53
2024-03-14T09:35:57.858Z,3.50
2024-03-14T09:38:26.789Z,3.30
2024-03-14T09:40:59.839Z,3.10
2024-03-14T09:43:33.804Z,3.30
2024-03-14T09:46:02.204Z,3.73
2024-03-14T09:48:31.348Z,4.60
2024-03-14T09:50:59.723Z,4.23
2024-03-14T09:53:30.299Z,3.67
2024-03-14T09:56:00.988Z,3.80
2024-03-14T09:58:30.174Z,3.57
2024-03-14T10:00:58.571Z,3.20
2024-03-14T10:03:27.356Z,3.57
2024-03-14T10:05:55.970Z,3.40
2024-03-14T10:08:24.324Z,4.10
2024-03-14T10:10:52.669Z,3.90
2024-03-14T10:13:27.191Z,3.80
2024-03-14T10:15:55.866Z,3.70
2024-03-14T10:18:28.242Z,3.67
2024-03-14T10:20:56.925Z,4.03
2024-03-14T10:23:26.744Z,2.83
2024-03-14T10:25:55.360Z,3.37
2024-03-14T10:28:29.700Z,3.40
2024-03-14T10:31:03.591Z,3.50
2024-03-14T10:33:34.026Z,3.17
2024-03-14T10:36:02.778Z,3.10
2024-03-14T10:38:37.087Z,3.60
2024-03-14T10:41:07.540Z,2.73
2024-03-14T10:43:38.315Z,3.00
2024-03-14T10:46:07.105Z,3.30
2024-03-14T10:48:36.428Z,3.30
2024-03-14T10:51:07.608Z,3.53
2024-03-14T10:53:36.422Z,2.70
2024-03-14T10:56:04.961Z,3.40
2024-03-14T10:58:33.474Z,2.90
2024-03-14T11:01:02.086Z,3.27
2024-03-14T11:03:30.750Z,2.70
2024-03-14T11:05:59.264Z,3.20
2024-03-14T11:08:28.067Z,3.00
2024-03-14T11:10:56.496Z,3.73
2024-03-14T11:13:26.652Z,2.93
2024-03-14T11:15:56.935Z,2.60
2024-03-14T11:18:25.900Z,2.87
2024-03-14T11:20:54.358Z,2.83
2024-03-14T11:23:24.074Z,2.73
2024-03-14T11:25:53.707Z,3.30
2024-03-14T11:28:22.038Z,2.70
2024-03-14T11:30:53.582Z,3.43
2024-03-14T11:33:21.990Z,3.00
2024-03-14T11:35:53.407Z,2.40
2024-03-14T11:38:30.364Z,2.60
2024-03-14T11:41:02.756Z,2.90
2024-03-14T11:43:31.231Z,2.80
2024-03-14T11:45:59.930Z,2.80
2024-03-14T11:48:30.363Z,3.10
2024-03-14T11:51:00.080Z,2.60
2024-03-14T11:53:28.492Z,2.30
2024-03-14T11:56:02.664Z,2.67
2024-03-14T11:58:40.725Z,2.40
2024-03-14T12:01:09.832Z,2.87
2024-03-14T12:03:38.485Z,2.87
2024-03-14T12:06:08.663Z,2.10
2024-03-14T12:08:38.970Z,2.50
2024-03-14T12:11:07.908Z,2.60
2024-03-14T12:13:36.259Z,2.30
2024-03-14T12:16:05.636Z,2.17
2024-03-14T12:18:34.660Z,2.70
2024-03-14T12:21:03.645Z,3.03
2024-03-14T12:23:33.953Z,2.50
2024-03-14T12:26:08.330Z,2.70
2024-03-14T12:28:37.250Z,2.53
2024-03-14T12:31:05.723Z,2.57
2024-03-14T12:33:34.073Z,2.60
2024-03-14T12:36:02.397Z,2.20
2024-03-14T12:38:33.004Z,2.23
2024-03-14T12:41:01.329Z,2.80
2024-03-14T12:43:32.078Z,2.13
2024-03-14T12:46:02.105Z,2.43
2024-03-14T12:48:31.662Z,2.03
2024-03-14T12:51:11.944Z,2.37
2024-03-14T12:53:40.909Z,2.20
2024-03-14T12:56:09.289Z,2.10
2024-03-14T12:58:37.632Z,1.93
2024-03-14T13:01:07.642Z,1.67
2024-03-14T13:03:36.884Z,2.13
2024-03-14T13:06:05.617Z,2.23
2024-03-14T13:08:35.193Z,2.50
2024-03-14T13:11:09.885Z,2.10
2024-03-14T13:13:39.329Z,2.77
2024-03-14T13:16:18.665Z,2.20
2024-03-14T13:18:47.747Z,1.97
2024-03-14T13:21:16.170Z,2.53
2024-03-14T13:23:46.961Z,2.30
2024-03-14T13:26:15.595Z,1.57
2024-03-14T13:28:44.192Z,2.10
2024-03-14T13:31:13.898Z,1.73
2024-03-14T13:33:42.681Z,1.90
2024-03-14T13:36:12.548Z,2.10
2024-03-14T13:38:41.031Z,2.10
2024-03-14T13:41:09.356Z,2.10
2024-03-14T13:43:38.963Z,1.67
2024-03-14T13:46:09.575Z,2.13
2024-03-14T13:48:38.153Z,1.83
2024-03-14T13:51:08.899Z,2.37
2024-03-14T13:53:40.816Z,1.97
2024-03-14T13:56:14.355Z,2.60
2024-03-14T13:58:45.235Z,1.90
2024-03-14T14:01:21.102Z,1.70
2024-03-14T14:03:54.472Z,1.97
2024-03-14T14:06:24.801Z,1.93
2024-03-14T14:08:53.201Z,2.00
2024-03-14T14:11:22.371Z,2.10
2024-03-14T14:13:50.856Z,2.40
2024-03-14T14:16:20.057Z,2.83
2024-03-14T14:18:48.620Z,2.60
2024-03-14T14:21:17.046Z,2.37
2024-03-14T14:23:45.393Z,2.60
2024-03-14T14:26:14.533Z,2.40
2024-03-14T14:28:44.749Z,3.50
2024-03-14T14:31:15.592Z,3.47
2024-03-14T14:33:44.277Z,3.90
2024-03-14T14:36:13.230Z,3.83
2024-03-14T14:38:41.780Z,4.30
2024-03-14T14:41:10.243Z,3.73
2024-03-14T14:43:38.628Z,3.63
2024-03-14T14:46:08.616Z,3.80
2024-03-14T14:48:37.999Z,3.90
2024-03-14T14:51:06.601Z,3.73
2024-03-14T14:53:35.448Z,4.03
2024-03-14T14:56:15.296Z,3.50
2024-03-14T14:58:46.763Z,3.73
2024-03-14T15:01:16.959Z,3.47
2024-03-14T15:03:48.126Z,4.40
2024-03-14T15:06:17.431Z,4.00
2024-03-14T15:08:47.000Z,3.27
2024-03-14T15:11:17.115Z,4.50
2024-03-14T15:13:46.253Z,3.50
2024-03-14T15:16:14.720Z,3.43
2024-03-14T15:18:44.233Z,3.20
2024-03-14T15:21:13.697Z,3.50
2024-03-14T15:23:44.028Z,3.77
2024-03-14T15:26:13.105Z,3.50
2024-03-14T15:28:42.362Z,4.17
2024-03-14T15:31:14.404Z,3.67
2024-03-14T15:33:45.128Z,3.70
2024-03-14T15:36:19.200Z,3.37
2024-03-14T15:38:48.627Z,3.47
2024-03-14T15:41:17.133Z,3.57
2024-03-14T15:43:45.592Z,4.10
2024-03-14T15:46:19.036Z,3.40
2024-03-14T15:48:47.915Z,3.73
2024-03-14T15:51:18.397Z,4.20
2024-03-14T15:53:50.134Z,3.60
2024-03-14T15:56:19.682Z,3.53
2024-03-14T15:58:48.677Z,4.03
2024-03-14T16:01:17.635Z,3.90
2024-03-14T16:03:47.552Z,3.57
2024-03-14T16:06:17.077Z,4.47
2024-03-14T16:08:51.863Z,3.60
2024-03-14T16:11:24.840Z,4.23
2024-03-14T16:13:55.355Z,3.60
2024-03-14T16:16:24.432Z,3.60
2024-03-14T16:18:53.249Z,4.20
2024-03-14T16:21:23.349Z,3.80
2024-03-14T16:23:51.670Z,4.00
2024-03-14T16:26:22.817Z,3.63
2024-03-14T16:28:52.872Z,3.50
2024-03-14T16:31:23.103Z,3.33
2024-03-14T16:33:52.060Z,4.20
2024-03-14T16:36:21.383Z,4.10
2024-03-14T16:38:50.177Z,3.67
2024-03-14T16:41:19.267Z,3.40
2024-03-14T16:43:47.635Z,3.53
2024-03-14T16:46:17.305Z,2.97
2024-03-14T16:48:46.682Z,4.00
2024-03-14T16:51:15.250Z,3.47
2024-03-14T16:53:43.748Z,4.60
2024-03-14T16:56:15.140Z,3.10
2024-03-14T16:58:43.443Z,3.60
2024-03-14T17:01:13.744Z,3.07
2024-03-14T17:03:42.274Z,3.67
2024-03-14T17:06:12.047Z,3.40
2024-03-14T17:08:41.677Z,3.07
2024-03-14T17:11:10.194Z,3.10
2024-03-14T17:13:38.875Z,3.07
2024-03-14T17:16:07.925Z,3.50
2024-03-14T17:18:37.345Z,3.20
2024-03-14T17:21:05.995Z,2.87
2024-03-14T17:23:34.927Z,3.10
2024-03-14T17:26:05.818Z,3.17
2024-03-14T17:28:36.688Z,2.60
2024-03-14T17:31:07.028Z,2.67
2024-03-14T17:33:40.088Z,2.53
2024-03-14T17:36:08.835Z,2.30
2024-03-14T17:38:37.177Z,2.87
2024-03-14T17:41:07.789Z,2.83
2024-03-14T17:43:36.132Z,3.13
2024-03-14T17:46:05.074Z,2.70
2024-03-14T17:48:34.242Z,2.67
2024-03-14T17:51:02.974Z,2.63
2024-03-14T17:53:31.286Z,2.63
2024-03-14T17:56:00.485Z,2.60
2024-03-14T17:58:29.179Z,2.90
2024-03-14T18:00:57.996Z,2.47
2024-03-14T18:03:28.205Z,2.10
2024-03-14T18:05:56.638Z,2.30
2024-03-14T18:08:24.924Z,2.73
2024-03-14T18:10:54.578Z,2.60
2024-03-14T18:13:23.018Z,2.53
2024-03-14T18:15:51.338Z,2.73
2024-03-14T18:18:20.079Z,2.13
2024-03-14T18:20:48.658Z,2.00
2024-03-14T18:23:16.986Z,1.80
2024-03-14T18:25:46.668Z,2.17
2024-03-14T18:28:16.492Z,2.17
2024-03-14T18:30:45.136Z,2.37
2024-03-14T18:33:14.226Z,2.07
2024-03-14T18:35:43.430Z,2.00
2024-03-14T18:38:11.826Z,2.33
2024-03-14T18:40:41.695Z,1.90
2024-03-14T18:43:11.297Z,2.00
2024-03-14T18:45:40.350Z,2.20
2024-03-14T18:48:10.029Z,1.60
2024-03-14T18:50:38.873Z,1.90
2024-03-14T18:53:28.684Z,1.80
2024-03-14T18:56:01.466Z,1.83
2024-03-14T18:58:30.019Z,2.00
2024-03-14T19:00:58.969Z,2.47
2024-03-14T19:03:28.252Z,1.90
2024-03-14T19:05:57.568Z,2.20
2024-03-14T19:08:27.867Z,2.60
2024-03-14T19:10:56.489Z,2.50
2024-03-14T19:13:26.437Z,2.10
2024-03-14T19:15:55.406Z,1.77
2024-03-14T19:18:26.141Z,2.00
2024-03-14T19:20:54.992Z,2.67
2024-03-14T19:23:23.910Z,1.90
2024-03-14T19:25:52.274Z,1.90
2024-03-14T19:28:21.708Z,2.10
2024-03-14T19:30:50.989Z,2.13
2024-03-14T19:33:19.492Z,2.90
2024-03-14T19:35:50.490Z,2.40
2024-03-14T19:38:18.809Z,1.90
2024-03-14T19:40:47.388Z,1.97
2024-03-14T19:43:16.973Z,2.00
2024-03-14T19:45:46.319Z,2.10
2024-03-14T19:48:14.746Z,2.07
2024-03-14T19:50:44.612Z,1.60
2024-03-14T19:53:12.925Z,1.60
2024-03-14T19:55:41.294Z,2.57
2024-03-14T19:58:09.573Z,1.57
2024-03-14T20:00:38.270Z,2.23
2024-03-14T20:03:08.700Z,2.00
2024-03-14T20:05:37.223Z,1.73
2024-03-14T20:08:05.918Z,1.40
2024-03-14T20:10:34.896Z,1.73
2024-03-14T20:13:03.249Z,1.63
2024-03-14T20:15:31.584Z,1.57
2024-03-14T20:18:00.028Z,1.50
2024-03-14T20:20:28.329Z,1.73
2024-03-14T20:22:56.625Z,1.67
2024-03-14T20:25:24.990Z,1.90
2024-03-14T20:27:53.373Z,2.00
2024-03-14T20:30:23.702Z,1.70
2024-03-14T20:32:55.093Z,1.53
2024-03-14T20:35:24.812Z,1.53
2024-03-14T20:37:53.431Z,1.43
2024-03-14T20:40:34.978Z,1.60
2024-03-14T20:43:05.099Z,1.90
2024-03-14T20:45:33.727Z,1.53
2024-03-14T20:48:02.856Z,2.00
2024-03-14T20:50:31.269Z,1.40
2024-03-14T20:52:59.541Z,1.93
2024-03-14T20:55:28.255Z,1.83
2024-03-14T20:57:57.017Z,2.10
2024-03-14T21:00:27.293Z,1.83
2024-03-14T21:02:55.918Z,1.70
2024-03-14T21:05:26.686Z,1.40
2024-03-14T21:07:55.557Z,1.87
2024-03-14T21:10:26.366Z,1.77
2024-03-14T21:12:54.778Z,1.67
2024-03-14T21:15:23.403Z,1.70
2024-03-14T21:17:51.884Z,1.33
2024-03-14T21:20:24.853Z,1.57
2024-03-14T21:22:53.668Z,1.93
2024-03-14T21:25:22.299Z,1.50
2024-03-14T21:27:51.956Z,1.87
2024-03-14T21:30:20.385Z,2.10
2024-03-14T21:32:49.250Z,1.73
2024-03-14T21:35:19.033Z,3.00
2024-03-14T21:37:47.570Z,1.77
2024-03-14T21:40:15.962Z,1.47
2024-03-14T21:42:44.469Z,1.90
2024-03-14T21:45:13.078Z,1.97
2024-03-14T21:47:41.514Z,1.83
2024-03-14T21:50:12.516Z,1.63
2024-03-14T21:52:42.432Z,2.07
2024-03-14T21:55:10.816Z,1.57
2024-03-14T21:57:40.643Z,2.20
2024-03-14T22:00:10.229Z,1.90
2024-03-14T22:02:38.799Z,2.20
2024-03-14T22:05:07.386Z,2.73
2024-03-14T22:07:37.617Z,2.57
2024-03-14T22:10:06.526Z,2.30
2024-03-14T22:12:34.828Z,2.57
2024-03-14T22:15:07.929Z,1.97
2024-03-14T22:17:37.933Z,1.97
2024-03-14T22:20:08.504Z,1.93
2024-03-14T22:22:36.977Z,2.07
2024-03-14T22:25:06.027Z,2.33
2024-03-14T22:27:34.627Z,2.20
2024-03-14T22:30:04.317Z,2.67
2024-03-14T22:32:32.752Z,2.27
2024-03-14T22:35:01.050Z,2.43
2024-03-14T22:37:29.310Z,2.20
2024-03-14T22:39:57.576Z,2.27
2024-03-14T22:42:26.040Z,2.20
2024-03-14T22:44:54.940Z,2.20
2024-03-14T22:47:24.034Z,1.97
2024-03-14T22:49:52.492Z,2.47
2024-03-14T22:52:20.769Z,2.23
2024-03-14T22:54:49.136Z,2.47
2024-03-14T22:57:18.155Z,1.97
2024-03-14T22:59:46.446Z,1.60
2024-03-14T23:02:15.521Z,2.40
2024-03-14T23:04:46.456Z,2.43
2024-03-14T23:07:14.813Z,1.80
2024-03-14T23:09:43.101Z,2.20
2024-03-14T23:12:11.892Z,2.13
2024-03-14T23:14:40.602Z,1.93
2024-03-14T23:17:08.898Z,2.87
2024-03-14T23:19:39.900Z,1.80
2024-03-14T23:22:09.748Z,2.60
2024-03-14T23:24:38.377Z,2.17
2024-03-14T23:27:06.694Z,3.00
2024-03-14T23:29:34.984Z,2.20
2024-03-14T23:32:03.241Z,1.93
2024-03-14T23:34:31.709Z,2.50
2024-03-14T23:36:59.944Z,2.40
2024-03-14T23:39:28.226Z,2.63
2024-03-14T23:41:57.570Z,1.90
2024-03-14T23:44:25.857Z,2.00
2024-03-14T23:46:54.124Z,2.30
2024-03-14T23:49:22.450Z,2.43
2024-03-14T23:51:50.731Z,2.73
2024-03-14T23:54:19.115Z,2.20
2024-03-14T23:56:47.409Z,2.10
2024-03-14T23:59:15.622Z,2.00
